Time;durP1;ratioP1;P1;durP2;ratioP2;P2;SDS_P1;SDS_P2;PMS_P1;PMS_P2;Temp;Humidity;BMP_temperature;BMP_pressure;BME280_temperature;BME280_humidity;BME280_pressure;Samples;Min_cycle;Max_cycle;Signal;HPM_P1;HPM_P2
2021/11/16 00:01:15;;;;;;;72.22;30.50;;;;;;;20.72;46.97;101611.25;4419655;32;20168;-69
2021/11/16 00:03:42;;;;;;;70.45;32.70;;;;;;;20.73;47.21;101616.47;4418779;32;20046;-69
2021/11/16 00:06:07;;;;;;;72.90;31.83;;;;;;;20.70;47.14;101611.72;4418790;32;20055;-69
2021/11/16 00:08:33;;;;;;;71.87;29.30;;;;;;;20.75;47.15;101602.50;4417826;32;20069;-69
2021/11/16 00:10:59;;;;;;;66.15;30.73;;;;;;;20.75;46.99;101605.34;4419456;32;20148;-69
2021/11/16 00:13:25;;;;;;;68.07;29.90;;;;;;;20.61;47.09;101593.84;4419465;32;20063;-69
2021/11/16 00:15:50;;;;;;;64.00;28.65;;;;;;;20.80;47.00;101610.38;4407341;32;20058;-69
2021/11/16 00:18:19;;;;;;;71.00;31.42;;;;;;;20.81;47.05;101596.88;4415896;32;20109;-69
2021/11/16 00:20:46;;;;;;;63.87;30.00;;;;;;;20.83;47.04;101602.91;4417923;32;20093;-69
2021/11/16 00:23:17;;;;;;;67.18;29.67;;;;;;;21.03;46.58;101594.50;4420182;32;20096;-69
2021/11/16 00:25:47;;;;;;;70.25;30.60;;;;;;;21.09;46.16;101598.25;4415861;32;20046;-69
2021/11/16 00:28:13;;;;;;;67.45;30.50;;;;;;;20.93;46.28;101604.41;4420426;32;20045;-70
2021/11/16 00:30:40;;;;;;;67.12;30.45;;;;;;;20.89;46.71;101606.69;4418535;32;20112;-69
2021/11/16 00:33:07;;;;;;;72.82;32.20;;;;;;;20.89;46.83;101604.59;4421434;32;20072;-69
2021/11/16 00:35:37;;;;;;;71.97;31.40;;;;;;;20.91;46.81;101607.75;4420058;32;20102;-69
2021/11/16 00:38:05;;;;;;;65.87;29.40;;;;;;;20.76;46.70;101615.50;4418833;32;20057;-70
2021/11/16 00:40:32;;;;;;;66.05;29.98;;;;;;;21.05;46.54;101611.97;4422714;32;20109;-69
2021/11/16 00:42:57;;;;;;;69.45;31.65;;;;;;;20.94;46.57;101609.69;4419664;32;20021;-69
2021/11/16 00:45:23;;;;;;;66.53;30.73;;;;;;;20.96;46.59;101607.09;4422794;32;20064;-69
2021/11/16 00:47:49;;;;;;;65.50;30.33;;;;;;;20.91;46.54;101610.63;4421752;32;20060;-69
2021/11/16 00:50:16;;;;;;;61.72;28.38;;;;;;;20.93;46.75;101602.31;4415272;32;20026;-69
2021/11/16 00:52:43;;;;;;;69.65;29.27;;;;;;;21.05;46.53;101603.37;4417578;32;20078;-69
2021/11/16 00:55:10;;;;;;;66.12;28.85;;;;;;;21.21;46.45;101600.06;4416303;32;20022;-69
2021/11/16 00:57:35;;;;;;;69.40;29.27;;;;;;;21.08;46.65;101591.72;4418565;32;20057;-69
2021/11/16 01:00:02;;;;;;;71.68;30.45;;;;;;;21.10;46.58;101589.19;4420375;32;20448;-69
2021/11/16 01:02:28;;;;;;;64.10;30.08;;;;;;;21.25;46.38;101594.91;4415119;32;21523;-69
2021/11/16 01:04:54;;;;;;;63.22;30.37;;;;;;;21.06;46.44;101587.78;4417221;32;20128;-69
2021/11/16 01:07:20;;;;;;;65.10;31.48;;;;;;;21.02;46.60;101592.91;4419018;32;20073;-69
2021/11/16 01:09:46;;;;;;;65.80;29.30;;;;;;;21.06;46.64;101582.84;4404733;32;20046;-69
2021/11/16 01:12:14;;;;;;;63.60;29.15;;;;;;;21.06;46.55;101577.13;4419635;32;20089;-69
2021/11/16 01:14:40;;;;;;;58.40;27.73;;;;;;;21.23;46.20;101591.78;4417986;32;20089;-69
2021/11/16 01:17:08;;;;;;;70.37;29.05;;;;;;;21.13;46.46;101579.59;4418420;32;20074;-69
2021/11/16 01:19:34;;;;;;;62.53;28.83;;;;;;;21.19;46.49;101582.56;4417287;32;20041;-69
2021/11/16 01:22:00;;;;;;;72.20;29.80;;;;;;;21.15;46.40;101582.78;4419252;32;20143;-70
2021/11/16 01:24:26;;;;;;;62.13;28.73;;;;;;;21.24;46.35;101587.62;4416921;32;20105;-70
2021/11/16 01:26:53;;;;;;;61.90;28.80;;;;;;;21.21;46.26;101572.22;4417146;32;20534;-69
2021/11/16 01:29:20;;;;;;;63.33;29.02;;;;;;;21.07;46.27;101569.31;4424292;32;20495;-69
2021/11/16 01:31:50;;;;;;;58.72;29.70;;;;;;;20.98;46.18;101569.41;4417577;32;20076;-70
2021/11/16 01:34:23;;;;;;;65.30;28.62;;;;;;;21.19;46.00;101553.94;4418974;32;20069;-69
2021/11/16 01:36:49;;;;;;;58.63;27.80;;;;;;;21.02;46.27;101556.47;4417030;32;20443;-70
2021/11/16 01:39:15;;;;;;;56.35;26.37;;;;;;;21.11;46.23;101550.66;4419151;32;20101;-69
2021/11/16 01:41:41;;;;;;;59.42;28.40;;;;;;;21.13;46.02;101550.19;4407064;32;20072;-69
2021/11/16 01:44:07;;;;;;;64.47;29.00;;;;;;;21.13;46.13;101553.84;4416435;32;20083;-69
2021/11/16 01:46:32;;;;;;;61.97;28.33;;;;;;;21.18;45.97;101550.31;4418812;32;20378;-69
2021/11/16 01:48:58;;;;;;;61.40;27.77;;;;;;;21.16;45.83;101552.84;4418312;32;20113;-70
2021/11/16 01:51:27;;;;;;;58.45;26.23;;;;;;;21.15;46.10;101548.44;4417444;32;20048;-69
2021/11/16 01:54:02;;;;;;;61.58;28.10;;;;;;;21.26;45.78;101547.84;4416195;32;20085;-70
2021/11/16 01:56:31;;;;;;;60.85;26.83;;;;;;;21.26;46.15;101547.84;4416202;32;20063;-70
2021/11/16 01:58:58;;;;;;;62.62;28.38;;;;;;;21.22;46.27;101552.94;4418111;32;20073;-69
2021/11/16 02:01:27;;;;;;;62.75;26.55;;;;;;;21.09;46.05;101541.81;4420410;32;20534;-70
2021/11/16 02:03:53;;;;;;;66.70;27.98;;;;;;;21.34;45.78;101540.41;4417877;32;20468;-69
2021/11/16 02:06:23;;;;;;;60.33;27.48;;;;;;;21.07;46.39;101541.50;4419006;32;20463;-70
2021/11/16 02:08:51;;;;;;;56.03;24.85;;;;;;;21.31;45.90;101541.41;4420555;32;20484;-70
2021/11/16 02:11:18;;;;;;;65.07;28.80;;;;;;;21.27;46.07;101537.97;4416683;32;20069;-70
2021/11/16 02:13:44;;;;;;;66.43;27.73;;;;;;;21.16;46.21;101538.53;4418760;32;20635;-70
2021/11/16 02:16:11;;;;;;;64.32;27.83;;;;;;;21.20;46.09;101533.41;4418049;32;20133;-69
2021/11/16 02:18:38;;;;;;;57.58;25.85;;;;;;;21.14;46.24;101537.47;4416546;32;20510;-70
2021/11/16 02:21:05;;;;;;;57.08;25.17;;;;;;;21.34;46.10;101535.50;4419318;32;20088;-69
2021/11/16 02:23:32;;;;;;;53.10;24.45;;;;;;;21.33;46.13;101535.97;4419513;32;20049;-69
2021/11/16 02:25:58;;;;;;;63.65;26.27;;;;;;;21.16;46.34;101546.34;4417262;32;20497;-69
2021/11/16 02:28:24;;;;;;;53.47;25.23;;;;;;;21.22;45.99;101533.72;4424672;32;20060;-69
2021/11/16 02:30:50;;;;;;;63.33;24.85;;;;;;;21.25;45.87;101538.44;4412438;32;21084;-69
2021/11/16 02:33:16;;;;;;;58.08;24.83;;;;;;;21.22;46.17;101533.72;4422664;32;20034;-69
2021/11/16 02:35:43;;;;;;;55.20;26.17;;;;;;;21.21;46.10;101543.59;4420572;32;20056;-70
2021/11/16 02:38:10;;;;;;;61.42;24.92;;;;;;;21.39;46.01;101536.88;4422788;32;20053;-69
2021/11/16 02:40:36;;;;;;;51.50;25.15;;;;;;;21.21;46.15;101528.47;4424478;32;20402;-69
2021/11/16 02:43:03;;;;;;;57.70;25.25;;;;;;;21.22;46.08;101530.03;4422131;32;20459;-70
2021/11/16 02:45:29;;;;;;;57.88;23.62;;;;;;;21.15;46.27;101528.37;4418213;32;20411;-70
2021/11/16 02:47:55;;;;;;;55.12;24.05;;;;;;;21.19;46.20;101519.59;4407742;32;20104;-70
2021/11/16 02:50:22;;;;;;;49.45;23.02;;;;;;;21.24;46.30;101524.63;4417483;32;20077;-69
2021/11/16 02:52:48;;;;;;;56.20;23.50;;;;;;;21.13;46.16;101525.22;4408421;32;20410;-70
2021/11/16 02:55:15;;;;;;;61.08;23.40;;;;;;;21.12;46.23;101522.84;4420153;32;20104;-70
2021/11/16 02:57:41;;;;;;;56.55;24.90;;;;;;;21.19;46.32;101516.72;4415982;32;20108;-69
2021/11/16 03:00:12;;;;;;;53.25;23.85;;;;;;;21.16;46.42;101511.97;4421991;32;20088;-70
2021/11/16 03:02:42;;;;;;;56.40;24.42;;;;;;;21.28;46.47;101516.62;4418047;32;20104;-69
2021/11/16 03:05:09;;;;;;;54.60;23.75;;;;;;;21.36;46.34;101510.00;4421907;32;20038;-68
2021/11/16 03:07:40;;;;;;;54.28;23.05;;;;;;;21.22;46.52;101505.09;4421969;32;20896;-68
2021/11/16 03:10:07;;;;;;;50.03;23.38;;;;;;;21.37;46.25;101503.00;4419248;32;20092;-68
2021/11/16 03:12:33;;;;;;;57.65;24.23;;;;;;;21.33;46.23;101502.41;4408028;32;20483;-68
2021/11/16 03:15:01;;;;;;;49.58;22.55;;;;;;;21.19;45.80;101502.41;4422177;32;20053;-68
2021/11/16 03:17:27;;;;;;;53.22;23.38;;;;;;;21.10;46.21;101503.31;4419682;32;20104;-68
2021/11/16 03:19:53;;;;;;;58.58;25.52;;;;;;;21.24;46.20;101505.38;4419859;32;20073;-68
2021/11/16 03:22:26;;;;;;;53.20;23.27;;;;;;;21.34;46.27;101495.41;4418102;32;20069;-68
2021/11/16 03:24:56;;;;;;;57.60;22.65;;;;;;;21.34;46.14;101500.31;4419839;32;20072;-68
2021/11/16 03:27:28;;;;;;;53.80;23.17;;;;;;;21.43;45.87;101501.03;4419553;32;20553;-68
2021/11/16 03:29:58;;;;;;;67.07;24.20;;;;;;;21.30;46.06;101499.75;4421387;32;20041;-68
2021/11/16 03:32:31;;;;;;;52.62;24.10;;;;;;;21.25;46.09;101492.66;4419384;32;20556;-68
2021/11/16 03:34:57;;;;;;;56.63;24.05;;;;;;;21.18;46.42;101481.59;4418974;32;20025;-68
2021/11/16 03:37:25;;;;;;;60.25;25.00;;;;;;;21.17;46.35;101482.84;4419608;32;20408;-68
2021/11/16 03:39:53;;;;;;;61.78;25.23;;;;;;;21.18;46.22;101481.59;4423377;32;20120;-68
2021/11/16 03:42:19;;;;;;;49.90;22.77;;;;;;;21.38;45.90;101475.94;4405938;32;20087;-68
2021/11/16 03:44:44;;;;;;;61.42;23.80;;;;;;;21.32;46.18;101463.59;4418038;32;20123;-68
2021/11/16 03:47:10;;;;;;;49.40;23.05;;;;;;;21.14;46.62;101460.19;4420815;32;20069;-68
2021/11/16 03:49:37;;;;;;;54.38;23.42;;;;;;;21.28;46.40;101465.09;4406535;32;20183;-68
2021/11/16 03:52:03;;;;;;;54.97;24.35;;;;;;;21.27;46.23;101454.94;4421812;32;20045;-68
2021/11/16 03:54:29;;;;;;;53.60;24.37;;;;;;;21.29;46.43;101456.00;4419871;32;20085;-68
2021/11/16 03:57:00;;;;;;;53.87;22.95;;;;;;;21.14;46.34;101454.47;4415865;32;20104;-68
2021/11/16 03:59:28;;;;;;;68.50;24.50;;;;;;;20.99;46.38;101456.53;4419146;32;20076;-68
2021/11/16 04:01:55;;;;;;;52.25;23.67;;;;;;;21.04;46.84;101462.34;4417223;32;20025;-68
2021/11/16 04:04:21;;;;;;;59.63;24.83;;;;;;;21.01;47.00;101459.66;4421933;32;20546;-68
2021/11/16 04:06:47;;;;;;;52.50;23.00;;;;;;;20.98;46.79;101461.44;4416717;32;20071;-68
2021/11/16 04:09:13;;;;;;;54.00;24.65;;;;;;;21.10;46.79;101460.37;4417401;32;20050;-68
2021/11/16 04:11:38;;;;;;;60.42;24.05;;;;;;;21.06;46.70;101456.12;4422002;32;20640;-68
2021/11/16 04:14:07;;;;;;;56.45;23.60;;;;;;;21.14;46.45;101460.19;4418356;32;20034;-68
2021/11/16 04:16:32;;;;;;;55.60;23.95;;;;;;;21.04;46.60;101455.81;4421260;32;20550;-68
2021/11/16 04:19:00;;;;;;;52.78;23.10;;;;;;;21.07;46.52;101441.31;4422095;32;20051;-68
2021/11/16 04:21:26;;;;;;;55.85;24.45;;;;;;;21.04;46.79;101442.31;4416809;32;20423;-68
2021/11/16 04:23:52;;;;;;;56.70;25.95;;;;;;;21.03;46.87;101439.94;4418826;32;20602;-68
2021/11/16 04:26:17;;;;;;;52.15;23.58;;;;;;;21.12;46.25;101440.63;4415512;32;20067;-68
2021/11/16 04:28:43;;;;;;;50.22;22.70;;;;;;;21.09;46.35;101444.50;4418206;32;20088;-68
2021/11/16 04:31:10;;;;;;;55.00;23.75;;;;;;;21.16;46.51;101444.06;4419578;32;20108;-68
2021/11/16 04:33:38;;;;;;;54.00;22.98;;;;;;;21.29;46.21;101443.75;4418739;32;20097;-68
2021/11/16 04:36:04;;;;;;;50.65;23.48;;;;;;;21.25;45.84;101446.84;4419721;32;20057;-68
2021/11/16 04:38:30;;;;;;;56.22;23.80;;;;;;;21.28;45.97;101445.84;4420032;32;20134;-68
2021/11/16 04:40:57;;;;;;;51.40;23.08;;;;;;;21.15;46.26;101438.84;4418524;32;20113;-68
2021/11/16 04:43:26;;;;;;;61.20;24.63;;;;;;;20.99;46.42;101431.53;4419891;32;20141;-68
2021/11/16 04:45:56;;;;;;;54.70;22.87;;;;;;;21.14;46.29;101428.69;4416403;32;20087;-68
2021/11/16 04:51:35;;;;;;;52.47;21.87;;;;;;;21.39;45.77;101433.78;4418360;32;20030;-68
2021/11/16 05:02:40;;;;;;;52.45;22.33;;;;;;;21.06;46.54;101416.84;4434614;32;20077;-69
2021/11/16 05:04:54;;;;;;;47.38;20.52;;;;;;;21.15;46.47;101418.81;4433040;32;20040;-69
2021/11/16 05:07:22;;;;;;;49.47;22.27;;;;;;;21.03;46.72;101411.31;4432656;32;20069;-69
2021/11/16 05:09:50;;;;;;;48.40;21.37;;;;;;;21.03;46.62;101420.72;4432702;32;20041;-69
2021/11/16 05:12:17;;;;;;;46.97;21.10;;;;;;;21.15;46.36;101413.88;4434653;32;21776;-69
2021/11/16 05:14:43;;;;;;;46.78;21.73;;;;;;;20.93;46.67;101413.47;4436042;32;20077;-69
2021/11/16 05:17:09;;;;;;;43.92;20.92;;;;;;;20.89;46.71;101404.28;4433000;32;20115;-69
2021/11/16 05:19:35;;;;;;;45.58;20.60;;;;;;;20.75;46.85;101404.31;4430766;32;20084;-69
2021/11/16 05:22:02;;;;;;;42.13;19.87;;;;;;;20.71;47.07;101400.84;4433144;32;20371;-69
2021/11/16 05:24:27;;;;;;;38.65;17.83;;;;;;;20.65;47.17;101408.53;4434110;32;20042;-69
2021/11/16 05:26:53;;;;;;;37.35;17.37;;;;;;;20.57;46.93;101407.34;4430853;32;20103;-69
2021/11/16 05:29:20;;;;;;;38.40;17.15;;;;;;;20.62;46.80;101401.72;4436047;32;20117;-69
2021/11/16 05:31:45;;;;;;;38.20;18.00;;;;;;;20.71;46.54;101393.03;4434362;32;20038;-69
2021/11/16 05:34:12;;;;;;;43.78;19.05;;;;;;;20.57;46.64;101402.44;4436473;32;20029;-69
2021/11/16 05:36:38;;;;;;;40.63;19.55;;;;;;;20.57;47.02;101399.56;4436214;32;20682;-69
2021/11/16 05:39:05;;;;;;;43.65;19.70;;;;;;;20.60;46.92;101400.63;4431487;32;20363;-69
2021/11/16 05:41:30;;;;;;;40.33;17.50;;;;;;;20.81;46.41;101393.75;4433573;32;20048;-69
2021/11/16 05:43:57;;;;;;;35.50;16.35;;;;;;;20.78;46.33;101386.16;4433885;32;20354;-70
2021/11/16 05:46:23;;;;;;;30.60;15.30;;;;;;;20.74;46.58;101394.16;4432639;32;20033;-69
2021/11/16 05:48:51;;;;;;;33.47;15.75;;;;;;;20.70;46.27;101394.34;4433261;32;20033;-69
2021/11/16 05:51:18;;;;;;;33.83;15.77;;;;;;;20.96;45.82;101391.69;4432159;32;20119;-69
2021/11/16 05:53:46;;;;;;;31.58;15.32;;;;;;;20.95;45.95;101373.72;4434030;32;20512;-69
2021/11/16 05:56:12;;;;;;;35.08;17.33;;;;;;;20.95;45.80;101387.25;4431037;32;20050;-69
2021/11/16 05:58:41;;;;;;;40.42;17.40;;;;;;;20.95;45.84;101384.38;4435425;32;20072;-69
2021/11/16 06:01:08;;;;;;;41.58;18.15;;;;;;;21.03;45.75;101392.09;4432557;32;20018;-69
2021/11/16 06:03:34;;;;;;;40.80;18.92;;;;;;;20.85;46.02;101386.53;4433769;32;20137;-69
2021/11/16 06:06:00;;;;;;;45.97;20.05;;;;;;;20.61;46.24;101380.13;4431787;32;20073;-69
2021/11/16 06:08:28;;;;;;;45.65;20.27;;;;;;;20.18;46.90;101386.59;4424873;32;20374;-69
2021/11/16 06:10:56;;;;;;;44.67;19.45;;;;;;;20.52;46.80;101385.16;4422655;32;20141;-69
2021/11/16 06:13:23;;;;;;;41.55;19.05;;;;;;;20.68;46.49;101376.09;4423378;32;20085;-69
2021/11/16 06:15:49;;;;;;;44.58;19.75;;;;;;;20.62;46.12;101370.25;4423591;32;20045;-69
2021/11/16 06:18:15;;;;;;;46.28;20.33;;;;;;;20.55;46.32;101378.44;4422246;32;20065;-69
2021/11/16 06:20:43;;;;;;;43.63;20.55;;;;;;;20.67;46.62;101366.72;4425794;32;20579;-69
2021/11/16 06:23:11;;;;;;;47.92;22.52;;;;;;;20.77;46.39;101371.06;4422469;32;20072;-69
2021/11/16 06:25:39;;;;;;;52.20;21.85;;;;;;;20.54;46.71;101374.00;4421434;32;20056;-69
2021/11/16 06:28:05;;;;;;;54.28;24.48;;;;;;;20.57;46.84;101376.69;4421670;32;20065;-69
2021/11/16 06:30:31;;;;;;;52.25;23.60;;;;;;;20.23;47.22;101367.97;4424253;32;20064;-69
2021/11/16 06:32:57;;;;;;;56.53;24.10;;;;;;;20.33;46.91;101370.25;4420085;32;20066;-69
2021/11/16 06:35:24;;;;;;;47.90;24.02;;;;;;;20.28;47.52;101367.28;4422477;32;20088;-69
2021/11/16 06:37:52;;;;;;;49.65;22.08;;;;;;;20.20;47.53;101366.88;4420528;32;20409;-69
2021/11/16 06:40:18;;;;;;;49.60;23.20;;;;;;;20.26;47.51;101359.22;4423394;32;20052;-69
2021/11/16 06:42:44;;;;;;;49.50;22.65;;;;;;;20.27;47.66;101354.25;4422078;32;20100;-69
2021/11/16 06:45:11;;;;;;;47.53;20.25;;;;;;;20.20;47.80;101355.47;4422692;32;20074;-70
2021/11/16 06:47:37;;;;;;;43.67;19.70;;;;;;;20.06;47.89;101353.31;4421183;32;20084;-69
2021/11/16 06:50:04;;;;;;;43.70;21.20;;;;;;;20.27;47.48;101351.41;4422090;32;20069;-69
2021/11/16 06:52:33;;;;;;;46.58;20.90;;;;;;;20.15;47.46;101364.69;4419659;32;20096;-69
2021/11/16 06:54:59;;;;;;;43.38;21.45;;;;;;;20.04;47.67;101352.22;4419898;32;21434;-69
2021/11/16 06:57:28;;;;;;;41.37;20.02;;;;;;;20.12;47.62;101351.38;4420250;32;20030;-69
2021/11/16 06:59:54;;;;;;;40.47;20.23;;;;;;;20.23;47.51;101354.47;4422702;32;20453;-69
2021/11/16 07:02:27;;;;;;;44.15;19.85;;;;;;;20.25;47.45;101333.97;4425016;32;20088;-69
2021/11/16 07:04:54;;;;;;;40.25;19.35;;;;;;;20.51;46.99;101343.53;4423465;32;20090;-69
2021/11/16 07:07:20;;;;;;;40.15;19.92;;;;;;;20.39;47.44;101345.41;4423236;32;20414;-69
2021/11/16 07:09:46;;;;;;;38.83;19.08;;;;;;;20.27;47.30;101343.62;4421486;32;20034;-69
2021/11/16 07:12:16;;;;;;;39.95;18.08;;;;;;;20.19;47.63;101345.28;4422439;32;20138;-69
2021/11/16 07:14:42;;;;;;;35.85;17.70;;;;;;;20.35;47.39;101344.03;4421660;32;20070;-69
2021/11/16 07:17:11;;;;;;;34.72;17.77;;;;;;;20.31;47.12;101332.00;4418159;32;20037;-70
2021/11/16 07:22:20;;;;;;;37.22;16.02;;;;;;;20.74;46.23;101334.84;3982381;32;15033294;-68
2021/11/16 07:24:51;;;;;;;33.05;17.30;;;;;;;20.74;46.23;101334.84;4433355;32;20096;-69
2021/11/16 07:27:21;;;;;;;32.55;17.02;;;;;;;20.33;46.43;101332.28;4431074;32;20062;-68
2021/11/16 07:32:26;;;;;;;39.20;17.77;;;;;;;21.00;45.80;101332.97;3977906;32;15024048;-69
2021/11/16 07:34:56;;;;;;;33.45;16.33;;;;;;;21.00;45.80;101332.97;4426790;32;20127;-69
2021/11/16 07:37:29;;;;;;;31.33;15.60;;;;;;;20.65;45.83;101326.38;4428432;32;20111;-69
2021/11/16 07:39:58;;;;;;;33.95;15.75;;;;;;;20.80;45.27;101330.00;4423761;32;20030;-68
2021/11/16 07:42:27;;;;;;;28.80;15.35;;;;;;;20.61;46.08;101327.84;4424720;32;20069;-68
2021/11/16 07:58:37;;;;;;;31.73;15.98;;;;;;;20.78;45.62;101321.16;3946747;32;15727491;-68
2021/11/16 08:01:10;;;;;;;30.35;14.95;;;;;;;20.78;45.62;101321.16;4415835;32;20075;-68
2021/11/16 08:03:43;;;;;;;25.90;13.43;;;;;;;20.46;45.57;101319.28;4413520;32;20041;-68
2021/11/16 08:14:06;;;;;;;26.10;13.23;;;;;;;20.94;44.78;101331.28;3970188;32;15022249;-69
2021/11/16 08:16:37;;;;;;;28.20;13.52;;;;;;;20.41;45.36;101325.72;4420593;32;20041;-69
2021/11/16 08:19:09;;;;;;;26.55;13.38;;;;;;;20.74;44.95;101326.25;4425146;32;20107;-68
2021/11/16 08:21:36;;;;;;;37.10;17.05;;;;;;;20.66;45.23;101313.66;4421855;32;20515;-69
2021/11/16 08:24:08;;;;;;;21.12;12.05;;;;;;;20.97;44.83;101319.66;4421568;32;20048;-69
2021/11/16 08:26:39;;;;;;;26.73;12.95;;;;;;;20.99;44.66;101319.94;4426047;32;20670;-69
2021/11/16 08:29:07;;;;;;;31.65;14.13;;;;;;;20.95;44.08;101315.69;4418754;32;20182;-69
2021/11/16 08:31:40;;;;;;;25.58;12.60;;;;;;;21.02;44.64;101313.22;4424336;32;20699;-69
2021/11/16 08:34:06;;;;;;;23.58;12.10;;;;;;;21.11;43.92;101315.19;4425255;32;20073;-68
2021/11/16 08:36:51;;;;;;;21.98;11.55;;;;;;;21.04;43.97;101310.66;4427040;32;20258;-69
2021/11/16 08:39:22;;;;;;;23.45;12.10;;;;;;;21.19;43.77;101311.41;4426973;32;20113;-68
2021/11/16 08:41:48;;;;;;;25.25;13.15;;;;;;;21.14;44.04;101314.97;4421491;32;20072;-69
2021/11/16 08:44:21;;;;;;;27.40;13.57;;;;;;;20.86;44.34;101312.94;4425888;32;20042;-69
2021/11/16 08:46:50;;;;;;;28.48;12.25;;;;;;;21.03;44.11;101314.81;4422444;32;21416;-69
2021/11/16 08:49:33;;;;;;;22.00;12.00;;;;;;;20.83;44.34;101296.78;4425199;32;20045;-68
2021/11/16 08:52:02;;;;;;;22.20;11.88;;;;;;;20.80;44.17;101298.53;4423221;32;20070;-68
2021/11/16 08:54:35;;;;;;;22.83;11.95;;;;;;;21.19;44.21;101288.50;4425842;32;20077;-67
2021/11/16 08:57:04;;;;;;;22.58;12.37;;;;;;;21.25;43.76;101289.38;4422364;32;20071;-68
2021/11/16 08:59:35;;;;;;;32.67;13.48;;;;;;;21.13;44.22;101278.25;4424856;32;20070;-67
2021/11/16 09:02:05;;;;;;;23.70;11.93;;;;;;;21.32;43.94;101274.63;4424956;32;20149;-68
2021/11/16 09:04:33;;;;;;;26.90;12.30;;;;;;;21.36;43.75;101274.44;4423703;32;20111;-68
2021/11/16 09:07:01;;;;;;;24.42;13.15;;;;;;;21.18;44.08;101274.69;4426492;32;20470;-68
2021/11/16 09:09:28;;;;;;;23.80;11.75;;;;;;;21.04;43.88;101267.72;4425000;32;20080;-68
2021/11/16 09:12:01;;;;;;;22.92;12.23;;;;;;;20.75;44.48;101267.00;4425407;32;20077;-68
2021/11/16 09:14:29;;;;;;;22.13;11.00;;;;;;;21.06;44.33;101267.22;4425386;32;20915;-68
2021/11/16 09:16:55;;;;;;;21.23;11.35;;;;;;;21.07;44.07;101265.94;4424495;32;20040;-68
2021/11/16 09:22:01;;;;;;;25.48;13.20;;;;;;;21.93;43.06;101271.78;3973023;32;15025970;-70
2021/11/16 09:24:34;;;;;;;23.45;12.00;;;;;;;21.93;43.06;101271.78;4422432;32;20073;-69
2021/11/16 09:29:49;;;;;;;20.40;10.95;;;;;;;21.75;42.72;101272.84;3968863;32;15021880;-69
2021/11/16 09:32:15;;;;;;;23.62;11.52;;;;;;;21.45;43.25;101269.31;4417635;32;20217;-69
2021/11/16 09:34:44;;;;;;;22.73;12.05;;;;;;;21.00;43.87;101267.16;4415057;32;20201;-69
2021/11/16 09:39:56;;;;;;;21.42;10.77;;;;;;;21.41;43.59;101260.19;3986969;31;15015358;-67
2021/11/16 09:42:25;;;;;;;20.75;11.18;;;;;;;21.67;42.96;101260.25;4441170;32;20108;-69
2021/11/16 09:44:55;;;;;;;22.23;11.20;;;;;;;21.98;42.85;101262.41;4440679;32;20092;-68
2021/11/16 09:47:26;;;;;;;22.85;9.93;;;;;;;22.04;42.38;101266.12;4442748;32;20075;-68
2021/11/16 09:55:10;;;;;;;20.37;12.25;;;;;;;22.53;41.94;101260.13;3972838;32;15022132;-69
2021/11/16 09:57:39;;;;;;;20.98;11.05;;;;;;;22.53;41.94;101260.13;4424811;32;20450;-69
2021/11/16 10:00:10;;;;;;;20.12;10.88;;;;;;;21.89;42.72;101237.59;4425552;32;21786;-69
2021/11/16 10:02:39;;;;;;;23.15;11.80;;;;;;;21.88;42.68;101238.88;4428215;32;20663;-68
2021/11/16 10:05:15;;;;;;;22.00;11.20;;;;;;;21.99;42.75;101241.84;4427071;32;20131;-68
2021/11/16 10:07:41;;;;;;;21.52;10.85;;;;;;;21.77;43.13;101238.75;4427152;32;20393;-68
2021/11/16 10:10:06;;;;;;;24.75;11.85;;;;;;;21.78;43.09;101233.81;4424593;32;21331;-69
2021/11/16 10:12:53;;;;;;;20.27;9.73;;;;;;;21.55;43.42;101242.12;4427989;32;20035;-68
2021/11/16 10:15:24;;;;;;;20.92;11.48;;;;;;;22.15;42.39;101231.88;4427313;32;20053;-68
2021/11/16 10:17:51;;;;;;;18.27;10.43;;;;;;;22.39;42.18;101230.25;4426181;32;20041;-70
2021/11/16 10:20:22;;;;;;;19.95;10.60;;;;;;;22.53;42.29;101225.69;4424270;32;20557;-70
2021/11/16 10:22:51;;;;;;;27.80;11.65;;;;;;;22.30;42.47;101223.91;4427103;32;21061;-70
2021/11/16 10:25:20;;;;;;;21.08;10.52;;;;;;;22.52;42.40;101227.00;4427266;32;20081;-70
2021/11/16 10:27:48;;;;;;;18.60;10.02;;;;;;;22.07;42.61;101225.00;4423184;32;20131;-69
2021/11/16 10:38:33;;;;;;;19.75;10.68;;;;;;;22.43;42.07;101209.94;3974296;32;15028466;-68
2021/11/16 10:41:03;;;;;;;18.92;9.77;;;;;;;22.36;42.67;101204.69;4430027;32;20089;-71
2021/11/16 10:43:38;;;;;;;19.25;9.75;;;;;;;22.24;42.80;101208.75;4429270;32;20033;-71
2021/11/16 10:46:07;;;;;;;23.52;9.85;;;;;;;22.40;42.41;101208.88;4427540;32;20100;-70
2021/11/16 10:48:34;;;;;;;20.62;9.70;;;;;;;22.33;42.81;101200.72;4426668;32;20115;-70
2021/11/16 10:51:07;;;;;;;19.25;9.98;;;;;;;22.43;42.88;101199.25;4423563;32;20093;-70
2021/11/16 10:53:33;;;;;;;17.35;9.43;;;;;;;22.35;42.76;101197.34;4426740;32;20539;-68
2021/11/16 10:56:02;;;;;;;17.45;9.65;;;;;;;21.99;43.56;101193.13;4421880;32;20033;-68
2021/11/16 10:58:44;;;;;;;18.08;9.85;;;;;;;22.38;43.17;101182.00;4425223;32;20081;-69
2021/11/16 11:01:14;;;;;;;22.00;10.00;;;;;;;22.63;42.11;101181.97;4430705;32;20455;-68
2021/11/16 11:03:43;;;;;;;14.10;8.07;;;;;;;;;;4427149;32;20125;-68
2021/11/16 11:16:56;;;;;;;19.00;8.60;;;;;;;23.00;42.58;101158.94;3976089;32;15024330;-69
2021/11/16 11:19:27;;;;;;;24.05;8.43;;;;;;;23.00;42.58;101158.94;4420111;32;20109;-69
2021/11/16 11:21:58;;;;;;;14.90;7.45;;;;;;;22.30;44.44;101147.25;4424145;32;20178;-69
2021/11/16 11:25:07;;;;;;;14.60;7.45;;;;;;;21.95;45.11;101137.34;4422448;32;20108;-69
2021/11/16 11:30:13;;;;;;;18.52;8.63;;;;;;;22.45;44.65;101130.69;3980470;32;15028251;-69
2021/11/16 11:32:41;;;;;;;15.00;7.62;;;;;;;22.45;44.65;101130.69;4426409;32;20259;-69
2021/11/16 11:40:27;;;;;;;15.82;8.02;;;;;;;21.88;45.59;101114.87;3983831;32;15028903;-69
2021/11/16 11:43:04;;;;;;;19.10;9.10;;;;;;;22.02;44.89;101113.94;4436836;32;21278;-70
2021/11/16 11:45:34;;;;;;;18.45;8.60;;;;;;;22.13;44.51;101108.31;4437475;32;20415;-69
2021/11/16 11:50:40;;;;;;;22.17;8.60;;;;;;;22.40;44.73;101096.25;3970425;31;15710933;-70
2021/11/16 11:53:09;;;;;;;20.80;9.52;;;;;;;22.40;44.73;101096.25;4447612;32;20071;-69
2021/11/16 11:55:38;;;;;;;19.55;9.27;;;;;;;22.06;45.00;101089.47;4434715;32;20108;-68
2021/11/16 11:58:06;;;;;;;20.67;9.50;;;;;;;22.10;44.81;101092.13;4448317;32;20097;-68
2021/11/16 12:00:34;;;;;;;23.27;9.30;;;;;;;22.02;44.93;101093.88;4446024;32;20102;-68
2021/11/16 12:03:03;;;;;;;19.12;8.38;;;;;;;21.97;44.88;101098.28;4434303;32;20080;-68
2021/11/16 12:05:31;;;;;;;17.48;8.43;;;;;;;21.79;44.33;101090.06;4433747;32;20063;-68
2021/11/16 12:07:58;;;;;;;21.20;8.18;;;;;;;21.54;45.21;101097.34;4443019;32;20077;-69
2021/11/16 12:10:23;;;;;;;20.40;8.45;;;;;;;21.66;45.07;101092.50;4444383;32;20068;-70
2021/11/16 12:12:52;;;;;;;18.33;8.80;;;;;;;21.43;45.66;101088.66;4443449;32;20460;-68
2021/11/16 12:15:30;;;;;;;16.45;8.30;;;;;;;21.76;44.95;101079.62;4447379;32;20045;-69
2021/11/16 12:17:58;;;;;;;14.55;7.70;;;;;;;22.08;44.41;101084.03;4446755;32;21596;-69
2021/11/16 12:23:42;;;;;;;20.27;8.05;;;;;;;22.05;44.98;101076.44;3968538;32;15027135;-69
2021/11/16 12:26:10;;;;;;;14.50;7.20;;;;;;;22.05;44.98;101076.44;4421326;32;20084;-69
2021/11/16 12:28:37;;;;;;;15.40;7.25;;;;;;;21.71;45.70;101074.59;4417179;32;20294;-70
2021/11/16 12:31:04;;;;;;;14.23;6.72;;;;;;;21.59;45.10;101070.84;4418856;32;20085;-69
2021/11/16 12:33:48;;;;;;;15.13;7.18;;;;;;;21.75;45.30;101065.81;4422067;32;21261;-69
2021/11/16 12:36:17;;;;;;;15.38;7.40;;;;;;;21.99;45.54;101060.53;4421524;32;20873;-69
2021/11/16 12:38:46;;;;;;;13.10;6.65;;;;;;;21.85;46.23;101053.66;4418163;32;20034;-70